Time;durP1;ratioP1;P1;durP2;ratioP2;P2;SDS_P1;SDS_P2;PMS_P1;PMS_P2;Temp;Humidity;BMP_temperature;BMP_pressure;BME280_temperature;BME280_humidity;BME280_pressure;Samples;Min_cycle;Max_cycle;Signal;HPM_P1;HPM_P2
2023/05/27 00:01:48;;;;;;;11.55;4.95;;;;;;;;;;5041006;28;20043;-72
2023/05/27 00:04:14;;;;;;;8.60;5.35;;;;;;;;;;5041929;28;20134;-74
2023/05/27 00:06:39;;;;;;;7.95;4.25;;;;;;;;;;5023636;28;20540;-73
2023/05/27 00:09:05;;;;;;;4.45;3.85;;;;;;;;;;5009824;28;20552;-74
2023/05/27 00:11:30;;;;;;;7.45;4.25;;;;;;;;;;5004928;28;20045;-74
2023/05/27 00:13:56;;;;;;;9.95;4.20;;;;;;;;;;5020831;28;20029;-72
2023/05/27 00:16:22;;;;;;;6.82;4.25;;;;;;;;;;5023317;28;20060;-74
2023/05/27 00:18:48;;;;;;;11.18;4.50;;;;;;;;;;5022044;28;20451;-72
2023/05/27 00:21:14;;;;;;;8.07;4.75;;;;;;;;;;5003585;28;20045;-72
2023/05/27 00:23:41;;;;;;;7.38;4.15;;;;;;;;;;5004613;28;20398;-74
2023/05/27 00:26:07;;;;;;;9.80;5.15;;;;;;;;;;5004324;28;20046;-74
2023/05/27 00:28:32;;;;;;;5.28;4.10;;;;;;;;;;5022654;28;20095;-72
2023/05/27 00:30:58;;;;;;;7.78;4.25;;;;;;;;;;5002706;28;20041;-73
2023/05/27 00:33:24;;;;;;;7.90;4.50;;;;;;;;;;5003816;28;20068;-74
2023/05/27 00:35:50;;;;;;;9.85;4.68;;;;;;;;;;5022265;28;20038;-71
2023/05/27 00:38:16;;;;;;;15.43;4.95;;;;;;;;;;5021434;28;20436;-75
2023/05/27 00:40:41;;;;;;;8.52;3.70;;;;;;;;;;5022425;28;20100;-71
2023/05/27 00:43:08;;;;;;;8.30;5.13;;;;;;;;;;5021939;28;20035;-73
2023/05/27 00:45:34;;;;;;;8.52;3.75;;;;;;;;;;5021416;28;20045;-73
2023/05/27 00:48:01;;;;;;;7.63;4.25;;;;;;;;;;5021967;28;20051;-73
2023/05/27 00:50:27;;;;;;;5.50;4.28;;;;;;;;;;5019133;28;20520;-74
2023/05/27 00:52:55;;;;;;;8.45;4.30;;;;;;;;;;5005223;28;20519;-72
2023/05/27 00:55:21;;;;;;;7.65;4.30;;;;;;;;;;5004623;28;20070;-74
2023/05/27 00:57:47;;;;;;;12.43;5.15;;;;;;;;;;5003340;28;20049;-70
2023/05/27 01:00:13;;;;;;;6.05;4.10;;;;;;;;;;5003751;28;20334;-73
2023/05/27 01:02:42;;;;;;;8.55;4.05;;;;;;;;;;5021776;28;20029;-72
2023/05/27 01:05:09;;;;;;;9.25;3.90;;;;;;;;;;5027840;28;20060;-71
2023/05/27 01:07:43;;;;;;;11.18;3.88;;;;;;;;;;5041149;28;20480;-73
2023/05/27 01:10:09;;;;;;;9.48;4.78;;;;;;;;;;5042148;28;20044;-73
2023/05/27 01:12:37;;;;;;;7.43;3.60;;;;;;;;;;5042657;28;20040;-71
2023/05/27 01:15:04;;;;;;;12.07;4.93;;;;;;;;;;5040046;28;20064;-72
2023/05/27 01:17:30;;;;;;;7.43;4.90;;;;;;;;;;5034786;28;20049;-73
2023/05/27 01:19:56;;;;;;;5.38;3.78;;;;;;;;;;5042682;28;20626;-72
2023/05/27 01:22:25;;;;;;;8.80;3.97;;;;;;;;;;5043110;28;20036;-74
2023/05/27 01:24:50;;;;;;;11.38;3.78;;;;;;;;;;5043241;28;20049;-74
2023/05/27 01:27:16;;;;;;;10.32;4.78;;;;;;;;;;5044985;28;20055;-71
2023/05/27 01:29:44;;;;;;;5.60;3.80;;;;;;;;;;5042384;28;20051;-72
2023/05/27 01:32:24;;;;;;;5.85;4.07;;;;;;;;;;5044684;28;20033;-74
2023/05/27 01:35:02;;;;;;;10.38;3.83;;;;;;;;;;5046317;28;20160;-72
2023/05/27 01:37:31;;;;;;;9.80;4.35;;;;;;;;;;5045447;28;20059;-72
2023/05/27 01:40:05;;;;;;;7.22;5.13;;;;;;;;;;5045107;28;20083;-73
2023/05/27 01:42:32;;;;;;;5.95;3.80;;;;;;;;;;5044439;28;20428;-72
2023/05/27 01:45:00;;;;;;;7.60;4.68;;;;;;;;;;5044077;28;20481;-75
2023/05/27 01:47:26;;;;;;;8.73;4.22;;;;;;;;;;5042286;28;20037;-73
2023/05/27 01:49:52;;;;;;;8.77;4.35;;;;;;;;;;5046339;28;20562;-71
2023/05/27 01:52:18;;;;;;;7.28;3.55;;;;;;;;;;5046516;28;20037;-73
2023/05/27 01:54:43;;;;;;;9.70;4.43;;;;;;;;;;5043792;28;20479;-73
2023/05/27 01:57:09;;;;;;;11.90;4.13;;;;;;;;;;5026484;28;20394;-73
2023/05/27 01:59:35;;;;;;;6.68;4.70;;;;;;;;;;5043115;28;20106;-74
2023/05/27 02:02:00;;;;;;;7.50;4.25;;;;;;;;;;5046427;28;20048;-72
2023/05/27 02:04:27;;;;;;;7.68;3.63;;;;;;;;;;5043853;28;20025;-71
2023/05/27 02:06:54;;;;;;;7.30;4.45;;;;;;;;;;5008468;28;20048;-72
2023/05/27 02:09:20;;;;;;;10.77;4.07;;;;;;;;;;4997601;28;20037;-74
2023/05/27 02:11:46;;;;;;;9.20;3.90;;;;;;;;;;5025236;28;20033;-73
2023/05/27 02:14:12;;;;;;;4.78;3.92;;;;;;;;;;5023865;28;20412;-72
2023/05/27 02:16:39;;;;;;;7.70;3.92;;;;;;;;;;5025374;28;20452;-73
2023/05/27 02:19:05;;;;;;;7.95;4.05;;;;;;;;;;5008417;28;20044;-72
2023/05/27 02:21:30;;;;;;;11.60;5.13;;;;;;;;;;5008172;28;20037;-74
2023/05/27 02:23:56;;;;;;;10.35;5.18;;;;;;;;;;5014069;28;20048;-74
2023/05/27 02:26:22;;;;;;;7.72;4.68;;;;;;;;;;5007940;28;20030;-74
2023/05/27 02:28:47;;;;;;;13.10;3.58;;;;;;;;;;5025351;28;20041;-74
2023/05/27 02:31:13;;;;;;;9.27;4.28;;;;;;;;;;5023461;28;20548;-74
2023/05/27 02:33:38;;;;;;;8.88;4.00;;;;;;;;;;5028234;28;20048;-73
2023/05/27 02:36:04;;;;;;;4.72;3.75;;;;;;;;;;5018270;28;20069;-73
2023/05/27 02:38:29;;;;;;;8.60;3.75;;;;;;;;;;5029110;28;20029;-74
2023/05/27 02:40:55;;;;;;;6.05;4.03;;;;;;;;;;5010541;28;20209;-71
2023/05/27 02:43:20;;;;;;;6.93;4.18;;;;;;;;;;5026527;28;20095;-71
2023/05/27 02:45:47;;;;;;;8.20;4.35;;;;;;;;;;5005821;28;20065;-65
2023/05/27 02:48:12;;;;;;;7.13;3.92;;;;;;;;;;4996238;28;20124;-67
2023/05/27 02:50:38;;;;;;;11.43;4.55;;;;;;;;;;5006349;28;20041;-67
2023/05/27 02:53:04;;;;;;;11.30;4.22;;;;;;;;;;5006193;28;20461;-67
2023/05/27 02:55:29;;;;;;;11.35;4.82;;;;;;;;;;5006222;28;20071;-68
2023/05/27 02:57:55;;;;;;;15.38;4.18;;;;;;;;;;5007400;28;20105;-69
2023/05/27 03:00:21;;;;;;;10.40;4.40;;;;;;;;;;5005639;28;20489;-68
2023/05/27 03:02:47;;;;;;;9.15;4.32;;;;;;;;;;5013925;28;20045;-67
2023/05/27 03:05:13;;;;;;;7.70;3.53;;;;;;;;;;5015520;28;20393;-67
2023/05/27 03:07:41;;;;;;;7.72;4.18;;;;;;;;;;5041619;28;20068;-65
2023/05/27 03:10:07;;;;;;;7.63;4.38;;;;;;;;;;5042886;28;20040;-68
2023/05/27 03:12:32;;;;;;;9.00;4.43;;;;;;;;;;5031642;28;20087;-68
2023/05/27 03:14:58;;;;;;;7.30;3.55;;;;;;;;;;5043793;28;20033;-67
2023/05/27 03:17:25;;;;;;;10.23;3.92;;;;;;;;;;5042200;28;20115;-68
2023/05/27 03:19:50;;;;;;;10.15;4.47;;;;;;;;;;5042344;28;20043;-68
2023/05/27 03:22:16;;;;;;;13.80;4.22;;;;;;;;;;5040464;28;20036;-67
2023/05/27 03:24:42;;;;;;;10.88;4.07;;;;;;;;;;5042363;28;20028;-67
2023/05/27 03:27:07;;;;;;;8.25;3.88;;;;;;;;;;5041627;28;20087;-68
2023/05/27 03:29:36;;;;;;;8.10;3.83;;;;;;;;;;5043292;28;20041;-64
2023/05/27 03:32:03;;;;;;;7.28;4.05;;;;;;;;;;5041962;28;20557;-67
2023/05/27 03:34:31;;;;;;;7.15;3.60;;;;;;;;;;5043730;28;20040;-67
2023/05/27 03:36:57;;;;;;;8.18;3.70;;;;;;;;;;5043498;28;20472;-67
2023/05/27 03:39:34;;;;;;;10.05;3.50;;;;;;;;;;5043804;28;20139;-67
2023/05/27 03:42:00;;;;;;;8.93;4.25;;;;;;;;;;5046111;28;20491;-67
2023/05/27 03:44:28;;;;;;;7.07;3.95;;;;;;;;;;5042052;28;20506;-67
2023/05/27 03:46:53;;;;;;;11.82;4.35;;;;;;;;;;5043472;28;20175;-68
2023/05/27 03:49:19;;;;;;;10.60;4.28;;;;;;;;;;5043362;28;20515;-69
2023/05/27 03:51:44;;;;;;;6.82;4.43;;;;;;;;;;5041576;28;20126;-67
2023/05/27 03:54:11;;;;;;;7.68;3.88;;;;;;;;;;5039454;28;20024;-67
2023/05/27 03:56:37;;;;;;;6.00;4.00;;;;;;;;;;5041881;28;20048;-68
2023/05/27 03:59:03;;;;;;;5.72;3.53;;;;;;;;;;5041811;28;20053;-66
2023/05/27 04:01:29;;;;;;;7.32;4.00;;;;;;;;;;5029683;28;20029;-67
2023/05/27 04:03:56;;;;;;;4.97;3.92;;;;;;;;;;5042314;28;20320;-67
2023/05/27 04:06:23;;;;;;;6.82;3.60;;;;;;;;;;5040606;28;20057;-66
2023/05/27 04:08:48;;;;;;;10.07;4.10;;;;;;;;;;5041459;28;20076;-67
2023/05/27 04:11:14;;;;;;;9.07;4.72;;;;;;;;;;5043505;28;20048;-67
2023/05/27 04:13:39;;;;;;;7.68;3.80;;;;;;;;;;5042036;28;20031;-67
2023/05/27 04:16:06;;;;;;;11.75;4.00;;;;;;;;;;5041253;28;20033;-67
2023/05/27 04:18:33;;;;;;;10.00;4.20;;;;;;;;;;5043503;28;20051;-66
2023/05/27 04:20:59;;;;;;;7.35;4.07;;;;;;;;;;5041689;28;20036;-66
2023/05/27 04:23:26;;;;;;;10.40;3.95;;;;;;;;;;5041179;28;20473;-68
2023/05/27 04:25:52;;;;;;;6.72;3.33;;;;;;;;;;5022636;28;20033;-66
2023/05/27 04:28:20;;;;;;;7.85;3.78;;;;;;;;;;5040395;28;20040;-66
2023/05/27 04:30:50;;;;;;;12.75;4.10;;;;;;;;;;5055797;28;20044;-66
2023/05/27 04:33:32;;;;;;;7.60;4.13;;;;;;;;;;5041215;28;20083;-64
2023/05/27 04:35:59;;;;;;;9.75;3.97;;;;;;;;;;5040360;28;20048;-67
2023/05/27 04:38:31;;;;;;;15.15;4.53;;;;;;;;;;5040499;28;20369;-66
2023/05/27 04:41:01;;;;;;;4.22;3.42;;;;;;;;;;5040489;28;20039;-65
2023/05/27 04:43:42;;;;;;;12.50;5.28;;;;;;;;;;5057373;28;20037;-65
2023/05/27 04:46:09;;;;;;;9.13;4.80;;;;;;;;;;5040231;28;20037;-66
2023/05/27 04:48:35;;;;;;;10.95;3.78;;;;;;;;;;5044171;28;20099;-66
2023/05/27 04:51:01;;;;;;;8.98;3.75;;;;;;;;;;5041438;28;20599;-65
2023/05/27 04:53:29;;;;;;;9.77;3.90;;;;;;;;;;5041840;28;20029;-66
2023/05/27 04:55:56;;;;;;;8.88;3.88;;;;;;;;;;5013752;28;20048;-64
2023/05/27 04:58:25;;;;;;;6.35;3.50;;;;;;;;;;5041983;28;20068;-64
2023/05/27 05:00:53;;;;;;;8.65;4.20;;;;;;;;;;5039356;28;20033;-65
2023/05/27 05:03:22;;;;;;;11.70;4.25;;;;;;;;;;5039871;28;20047;-64
2023/05/27 05:05:54;;;;;;;6.63;3.55;;;;;;;;;;5039788;28;20135;-62
2023/05/27 05:08:20;;;;;;;5.93;3.60;;;;;;;;;;5028357;28;20098;-64
2023/05/27 05:10:47;;;;;;;12.13;4.18;;;;;;;;;;5028695;28;20247;-64
2023/05/27 05:13:13;;;;;;;9.93;4.10;;;;;;;;;;5041118;28;20037;-66
2023/05/27 05:15:40;;;;;;;10.65;4.50;;;;;;;;;;5039305;28;20036;-65
2023/05/27 05:18:05;;;;;;;9.15;3.90;;;;;;;;;;5030712;28;20127;-65
2023/05/27 05:20:31;;;;;;;9.75;4.38;;;;;;;;;;5039168;28;20078;-65
2023/05/27 05:22:57;;;;;;;10.05;3.70;;;;;;;;;;5038147;28;20041;-67
2023/05/27 05:25:24;;;;;;;8.07;3.78;;;;;;;;;;5040157;28;20390;-65
2023/05/27 05:27:55;;;;;;;8.63;3.83;;;;;;;;;;5038784;28;20051;-67
2023/05/27 05:30:21;;;;;;;9.45;4.00;;;;;;;;;;5045716;28;20160;-69
2023/05/27 05:32:46;;;;;;;6.80;3.67;;;;;;;;;;5031947;28;20025;-67
2023/05/27 05:35:13;;;;;;;9.05;4.25;;;;;;;;;;5041850;28;20139;-68
2023/05/27 05:37:44;;;;;;;7.55;4.10;;;;;;;;;;5040700;28;20028;-68
2023/05/27 05:40:10;;;;;;;12.18;4.35;;;;;;;;;;5039154;28;20944;-67
2023/05/27 05:42:42;;;;;;;8.43;4.88;;;;;;;;;;5039097;28;20100;-66
2023/05/27 05:45:10;;;;;;;8.80;3.90;;;;;;;;;;5055306;28;20460;-66
2023/05/27 05:47:39;;;;;;;7.28;3.78;;;;;;;;;;5023913;28;20048;-68
2023/05/27 05:50:10;;;;;;;13.52;3.70;;;;;;;;;;5022644;28;20103;-64
2023/05/27 05:52:36;;;;;;;7.93;3.88;;;;;;;;;;5040226;28;20044;-65
2023/05/27 05:55:03;;;;;;;9.82;4.22;;;;;;;;;;5038506;28;20085;-65
2023/05/27 05:57:32;;;;;;;9.52;3.60;;;;;;;;;;5037855;28;20364;-65
2023/05/27 05:59:57;;;;;;;10.05;4.22;;;;;;;;;;5044793;28;20496;-65
2023/05/27 06:02:23;;;;;;;8.43;3.53;;;;;;;;;;5035712;28;20156;-66
2023/05/27 06:04:49;;;;;;;8.00;4.05;;;;;;;;;;5043711;28;20044;-65
2023/05/27 06:07:14;;;;;;;17.58;3.95;;;;;;;;;;5037069;28;20312;-65
2023/05/27 06:09:48;;;;;;;8.60;3.90;;;;;;;;;;5038543;28;20083;-64
2023/05/27 06:12:21;;;;;;;10.40;3.88;;;;;;;;;;5029617;28;20052;-67
2023/05/27 06:14:48;;;;;;;10.57;4.25;;;;;;;;;;5039022;28;20041;-68
2023/05/27 06:17:23;;;;;;;7.80;3.60;;;;;;;;;;5038426;28;20370;-66
2023/05/27 06:19:49;;;;;;;6.07;3.90;;;;;;;;;;5025996;28;20384;-67
2023/05/27 06:22:15;;;;;;;9.13;4.63;;;;;;;;;;5039386;28;20551;-67
2023/05/27 06:25:10;;;;;;;10.60;4.03;;;;;;;;;;5029038;28;20040;-68
2023/05/27 06:27:45;;;;;;;;;;;;;;;;;;5040355;28;20041;-66
2023/05/27 06:30:10;;;;;;;8.23;3.83;;;;;;;;;;5043550;28;20418;-66
2023/05/27 06:32:42;;;;;;;10.48;5.07;;;;;;;;;;5023434;28;20541;-66
2023/05/27 06:35:09;;;;;;;10.35;4.70;;;;;;;;;;5043459;28;20048;-66
2023/05/27 06:37:41;;;;;;;12.02;3.95;;;;;;;;;;5043536;28;20044;-66
2023/05/27 06:40:08;;;;;;;9.15;4.15;;;;;;;;;;5041428;28;20036;-66
2023/05/27 06:42:34;;;;;;;7.85;3.90;;;;;;;;;;5041614;28;20040;-64
2023/05/27 06:45:12;;;;;;;6.75;4.10;;;;;;;;;;5057333;28;20051;-65
2023/05/27 06:47:38;;;;;;;12.38;5.05;;;;;;;;;;5044558;28;20505;-65
2023/05/27 06:50:04;;;;;;;8.70;4.07;;;;;;;;;;5023732;28;20171;-66
2023/05/27 06:52:31;;;;;;;12.38;4.03;;;;;;;;;;5047349;28;20091;-66
2023/05/27 06:55:18;;;;;;;7.90;4.20;;;;;;;;;;5032707;28;20029;-66
2023/05/27 06:58:12;;;;;;;8.85;4.70;;;;;;;;;;5000023;28;20080;-65
2023/05/27 07:00:58;;;;;;;11.70;3.90;;;;;;;;;;4999970;28;20038;-65
2023/05/27 07:03:56;;;;;;;10.23;4.15;;;;;;;;;;4990375;28;20041;-65
2023/05/27 07:06:36;;;;;;;8.23;4.78;;;;;;;;;;4983773;28;20524;-66
2023/05/27 07:09:03;;;;;;;13.07;4.95;;;;;;;;;;5000252;28;20587;-65
2023/05/27 07:11:32;;;;;;;10.93;4.60;;;;;;;;;;5000205;28;20818;-65
2023/05/27 07:14:05;;;;;;;10.18;4.43;;;;;;;;;;4982099;28;20494;-66
2023/05/27 07:16:32;;;;;;;12.40;4.60;;;;;;;;;;4983118;28;20034;-65
2023/05/27 07:18:58;;;;;;;7.32;3.72;;;;;;;;;;5000093;28;20042;-65
2023/05/27 07:21:26;;;;;;;10.80;4.15;;;;;;;;;;4999896;28;20076;-64
2023/05/27 07:23:51;;;;;;;12.60;4.90;;;;;;;;;;4999086;28;20310;-64
2023/05/27 07:26:35;;;;;;;11.07;4.68;;;;;;;;;;4999449;28;20045;-65
2023/05/27 07:29:01;;;;;;;6.88;4.80;;;;;;;;;;4999426;28;20042;-65
2023/05/27 07:31:47;;;;;;;9.57;4.40;;;;;;;;;;4955046;28;20420;-66
2023/05/27 07:34:14;;;;;;;11.68;3.90;;;;;;;;;;5000482;28;20140;-65
2023/05/27 07:36:40;;;;;;;9.82;4.45;;;;;;;;;;5040572;28;20518;-65
2023/05/27 07:39:06;;;;;;;9.40;4.38;;;;;;;;;;5038756;28;20057;-67
2023/05/27 07:41:35;;;;;;;9.88;4.57;;;;;;;;;;5058515;28;20052;-65
2023/05/27 07:44:02;;;;;;;6.65;4.15;;;;;;;;;;5040468;28;20040;-66
2023/05/27 07:46:27;;;;;;;8.23;4.35;;;;;;;;;;5041459;28;20041;-66
2023/05/27 07:48:53;;;;;;;11.05;4.13;;;;;;;;;;5043165;28;20108;-67
2023/05/27 07:51:19;;;;;;;7.22;3.42;;;;;;;;;;5057514;28;20476;-66
2023/05/27 07:53:45;;;;;;;14.13;4.35;;;;;;;;;;5046803;28;20103;-66
2023/05/27 07:56:12;;;;;;;7.18;4.65;;;;;;;;;;5042901;28;20041;-65
2023/05/27 07:58:44;;;;;;;10.70;5.18;;;;;;;;;;5042317;28;20036;-67
2023/05/27 08:01:15;;;;;;;11.75;5.18;;;;;;;;;;5042437;28;20035;-66
2023/05/27 08:03:47;;;;;;;12.13;4.15;;;;;;;;;;5029325;28;20060;-66
2023/05/27 08:06:15;;;;;;;10.23;4.35;;;;;;;;;;5029902;28;20044;-67
2023/05/27 08:08:41;;;;;;;8.25;4.53;;;;;;;;;;5042068;28;20528;-66
2023/05/27 08:11:33;;;;;;;7.32;4.70;;;;;;;;;;5040591;28;20059;-66
2023/05/27 08:14:20;;;;;;;8.52;4.40;;;;;;;;;;5030175;28;20584;-67
2023/05/27 08:17:09;;;;;;;10.70;4.25;;;;;;;;;;5041174;28;20471;-63
2023/05/27 08:20:08;;;;;;;6.47;4.57;;;;;;;;;;5030929;28;20072;-67
2023/05/27 08:22:52;;;;;;;10.05;4.97;;;;;;;;;;5040829;28;20071;-64
2023/05/27 08:25:36;;;;;;;8.90;4.30;;;;;;;;;;5040050;28;20150;-64
2023/05/27 08:28:21;;;;;;;11.75;4.40;;;;;;;;;;5046188;28;20175;-64
2023/05/27 08:31:16;;;;;;;9.20;4.60;;;;;;;;;;5033109;28;20072;-66
2023/05/27 08:33:48;;;;;;;16.35;4.95;;;;;;;;;;5054934;28;20398;-66
2023/05/27 08:36:19;;;;;;;11.20;4.13;;;;;;;;;;5039936;28;20431;-66
2023/05/27 08:38:47;;;;;;;13.13;4.50;;;;;;;;;;5041679;28;20040;-64
2023/05/27 08:41:27;;;;;;;14.02;6.20;;;;;;;;;;5030737;28;20091;-67
2023/05/27 08:43:53;;;;;;;9.40;4.78;;;;;;;;;;5037985;28;20147;-66
2023/05/27 08:46:18;;;;;;;9.30;4.30;;;;;;;;;;5040423;28;20480;-65
2023/05/27 08:48:44;;;;;;;10.50;4.65;;;;;;;;;;5040695;28;20547;-67
2023/05/27 08:51:10;;;;;;;13.00;5.07;;;;;;;;;;5037726;28;20134;-65
2023/05/27 08:53:37;;;;;;;10.65;5.15;;;;;;;;;;5041052;28;20037;-65
2023/05/27 08:56:04;;;;;;;8.70;4.32;;;;;;;;;;5040402;28;20444;-65
2023/05/27 08:58:37;;;;;;;10.77;4.72;;;;;;;;;;5040363;28;20052;-64
2023/05/27 09:01:03;;;;;;;11.05;4.90;;;;;;;;;;5030930;28;20033;-64
2023/05/27 09:03:30;;;;;;;9.05;4.47;;;;;;;;;;5038628;28;20051;-65
2023/05/27 09:05:57;;;;;;;10.63;3.85;;;;;;;;;;5025050;28;20058;-64
2023/05/27 09:08:22;;;;;;;12.50;4.95;;;;;;;;;;5021470;28;20041;-66
2023/05/27 09:10:48;;;;;;;7.50;4.35;;;;;;;;;;5020160;28;20045;-68
2023/05/27 09:13:13;;;;;;;13.60;4.35;;;;;;;;;;5020132;28;20037;-68
2023/05/27 09:15:40;;;;;;;8.35;4.80;;;;;;;;;;5019522;28;20061;-69
2023/05/27 09:18:06;;;;;;;10.35;5.25;;;;;;;;;;5020977;28;20041;-67
2023/05/27 09:20:32;;;;;;;9.80;4.47;;;;;;;;;;5003341;28;20041;-68
2023/05/27 09:22:58;;;;;;;11.05;4.97;;;;;;;;;;5021498;28;20041;-68
2023/05/27 09:25:24;;;;;;;8.57;4.10;;;;;;;;;;5018324;28;20025;-68
2023/05/27 09:27:50;;;;;;;11.13;5.28;;;;;;;;;;5002778;28;20045;-68
2023/05/27 09:30:19;;;;;;;7.30;4.85;;;;;;;;;;5019734;28;20068;-68
2023/05/27 09:32:45;;;;;;;6.22;4.47;;;;;;;;;;5019201;28;20033;-67
2023/05/27 09:35:11;;;;;;;7.68;4.13;;;;;;;;;;5019302;28;20457;-68
2023/05/27 09:37:37;;;;;;;8.15;4.20;;;;;;;;;;5020530;28;20033;-59
2023/05/27 09:40:06;;;;;;;10.75;4.68;;;;;;;;;;5020700;28;20038;-60
2023/05/27 09:42:38;;;;;;;9.30;4.30;;;;;;;;;;5020495;28;20056;-61
2023/05/27 09:45:05;;;;;;;10.95;4.90;;;;;;;;;;5018847;28;20053;-62
2023/05/27 09:47:31;;;;;;;13.70;5.40;;;;;;;;;;5002125;28;20048;-61
2023/05/27 09:50:00;;;;;;;8.52;4.57;;;;;;;;;;5017548;28;20092;-59
2023/05/27 09:52:26;;;;;;;8.43;4.65;;;;;;;;;;4999726;28;20052;-62
2023/05/27 09:54:51;;;;;;;12.15;4.97;;;;;;;;;;5001150;28;20459;-62
2023/05/27 09:57:17;;;;;;;12.45;5.05;;;;;;;;;;5019684;28;20030;-62
2023/05/27 09:59:45;;;;;;;7.45;3.70;;;;;;;;;;5019932;28;20038;-62
2023/05/27 10:02:12;;;;;;;9.57;4.45;;;;;;;;;;4990164;28;20109;-62
2023/05/27 10:04:38;;;;;;;10.65;5.45;;;;;;;;;;5019284;28;20152;-63
2023/05/27 10:07:03;;;;;;;8.77;4.20;;;;;;;;;;5018887;28;20436;-64
2023/05/27 10:09:29;;;;;;;8.85;4.13;;;;;;;;;;5023474;28;20095;-64
2023/05/27 10:11:55;;;;;;;8.48;4.38;;;;;;;;;;5022709;28;20060;-64
2023/05/27 10:14:20;;;;;;;12.57;4.55;;;;;;;;;;5023623;28;20044;-64
2023/05/27 10:16:55;;;;;;;11.13;4.47;;;;;;;;;;5021026;28;20037;-64
2023/05/27 10:19:21;;;;;;;10.65;4.22;;;;;;;;;;5024246;28;20212;-64
2023/05/27 10:21:46;;;;;;;8.23;4.65;;;;;;;;;;5024467;28;20013;-65
2023/05/27 10:24:12;;;;;;;9.38;4.10;;;;;;;;;;5022980;28;20500;-64
2023/05/27 10:26:45;;;;;;;8.75;4.25;;;;;;;;;;5020668;28;20045;-63
2023/05/27 10:29:10;;;;;;;14.52;4.70;;;;;;;;;;5022730;28;20930;-64
2023/05/27 10:31:45;;;;;;;8.80;4.82;;;;;;;;;;5011362;28;20072;-64
2023/05/27 10:34:11;;;;;;;7.35;3.78;;;;;;;;;;5023899;28;20033;-63
2023/05/27 10:36:36;;;;;;;8.02;4.47;;;;;;;;;;5023619;28;20045;-65
2023/05/27 10:39:05;;;;;;;10.20;4.10;;;;;;;;;;5022885;28;20575;-65
2023/05/27 10:41:40;;;;;;;12.40;10.23;;;;;;;;;;5023620;28;20128;-64
2023/05/27 10:44:10;;;;;;;14.90;4.32;;;;;;;;;;5024108;28;20457;-65
2023/05/27 10:46:42;;;;;;;14.50;4.47;;;;;;;;;;5022132;28;20052;-63
2023/05/27 10:49:10;;;;;;;8.80;4.85;;;;;;;;;;5023658;28;20467;-63
2023/05/27 10:51:36;;;;;;;10.90;4.35;;;;;;;;;;5005287;28;20053;-64
2023/05/27 10:54:05;;;;;;;9.93;3.45;;;;;;;;;;5023876;28;20038;-64
2023/05/27 10:56:30;;;;;;;7.28;3.88;;;;;;;;;;5022374;28;20480;-63
2023/05/27 10:58:56;;;;;;;9.15;3.92;;;;;;;;;;5021393;28;20200;-64
2023/05/27 11:01:23;;;;;;;13.02;4.63;;;;;;;;;;5004186;28;20326;-63
2023/05/27 11:03:49;;;;;;;7.28;4.10;;;;;;;;;;5021521;28;20471;-64
2023/05/27 11:06:16;;;;;;;6.45;3.45;;;;;;;;;;5021228;28;20367;-65
2023/05/27 11:08:42;;;;;;;12.23;4.32;;;;;;;;;;5022617;28;20037;-66
2023/05/27 11:11:08;;;;;;;10.23;4.07;;;;;;;;;;5021198;28;20396;-64
2023/05/27 11:13:35;;;;;;;10.02;5.10;;;;;;;;;;5016759;28;20046;-64
2023/05/27 11:16:01;;;;;;;8.35;3.60;;;;;;;;;;5015430;28;20052;-66
2023/05/27 11:18:53;;;;;;;6.75;3.97;;;;;;;;;;5003149;28;20148;-64
2023/05/27 11:21:19;;;;;;;7.38;4.00;;;;;;;;;;5010452;28;20046;-64
2023/05/27 11:23:48;;;;;;;8.63;3.90;;;;;;;;;;5018982;28;20472;-63
2023/05/27 11:26:18;;;;;;;7.43;3.70;;;;;;;;;;5020483;28;20743;-65
2023/05/27 11:28:46;;;;;;;11.63;5.63;;;;;;;;;;5021593;28;20029;-64
2023/05/27 11:31:15;;;;;;;8.98;4.72;;;;;;;;;;5022579;28;20056;-63
2023/05/27 11:33:44;;;;;;;8.52;3.65;;;;;;;;;;5021384;28;20041;-63
2023/05/27 11:36:14;;;;;;;9.93;3.92;;;;;;;;;;5019488;28;20287;-63
2023/05/27 11:38:46;;;;;;;6.90;4.35;;;;;;;;;;5021741;28;20037;-65
2023/05/27 11:41:11;;;;;;;9.32;4.38;;;;;;;;;;5021192;28;20452;-66
2023/05/27 11:43:46;;;;;;;9.48;4.30;;;;;;;;;;5023680;28;20050;-64
2023/05/27 11:46:15;;;;;;;7.05;4.40;;;;;;;;;;5022613;28;20103;-63
2023/05/27 11:48:40;;;;;;;10.18;3.80;;;;;;;;;;5005686;28;20177;-62
2023/05/27 11:51:06;;;;;;;10.02;4.00;;;;;;;;;;5023257;28;20795;-64
2023/05/27 11:53:31;;;;;;;9.05;3.88;;;;;;;;;;5003477;28;20041;-63
2023/05/27 11:55:57;;;;;;;9.13;3.65;;;;;;;;;;5022177;28;20519;-63
2023/05/27 11:58:22;;;;;;;9.52;3.53;;;;;;;;;;5023985;28;20041;-64
2023/05/27 12:00:48;;;;;;;9.07;4.25;;;;;;;;;;5003701;28;20548;-64
2023/05/27 12:03:13;;;;;;;8.15;4.72;;;;;;;;;;5002840;28;20675;-64
2023/05/27 12:05:38;;;;;;;4.88;4.03;;;;;;;;;;5022365;28;20069;-63
2023/05/27 12:08:05;;;;;;;8.05;4.13;;;;;;;;;;5039102;28;20102;-62
2023/05/27 12:10:30;;;;;;;11.43;5.03;;;;;;;;;;5042882;28;20044;-64
2023/05/27 12:13:02;;;;;;;10.30;4.18;;;;;;;;;;5041274;28;20392;-63
2023/05/27 12:15:27;;;;;;;6.60;3.95;;;;;;;;;;5043115;28;20044;-63
2023/05/27 12:17:53;;;;;;;7.38;3.75;;;;;;;;;;5040553;28;20036;-64
2023/05/27 12:20:19;;;;;;;9.38;4.35;;;;;;;;;;5040916;28;20397;-65
2023/05/27 12:22:45;;;;;;;7.32;3.85;;;;;;;;;;5039609;28;20045;-65
2023/05/27 12:25:10;;;;;;;6.95;3.70;;;;;;;;;;5043298;28;20267;-65
2023/05/27 12:27:36;;;;;;;8.68;4.00;;;;;;;;;;5042309;28;20148;-65
2023/05/27 12:30:01;;;;;;;9.48;4.07;;;;;;;;;;5024803;28;20131;-66
2023/05/27 12:32:27;;;;;;;8.48;3.80;;;;;;;;;;5040597;28;20069;-66
2023/05/27 12:34:52;;;;;;;7.45;4.85;;;;;;;;;;5041384;28;20037;-65
2023/05/27 12:37:19;;;;;;;6.82;4.20;;;;;;;;;;5040605;28;20063;-65
2023/05/27 12:39:47;;;;;;;5.78;4.20;;;;;;;;;;5042428;28;20499;-64
2023/05/27 12:42:16;;;;;;;5.00;3.60;;;;;;;;;;5040095;28;20033;-65
2023/05/27 12:44:42;;;;;;;9.25;4.10;;;;;;;;;;5039951;28;20041;-67
2023/05/27 12:47:07;;;;;;;4.63;3.50;;;;;;;;;;5041052;28;20095;-65
2023/05/27 12:49:33;;;;;;;9.90;4.57;;;;;;;;;;5039798;28;20040;-67
2023/05/27 12:51:59;;;;;;;7.68;3.95;;;;;;;;;;5040248;28;20032;-66
2023/05/27 12:54:24;;;;;;;7.90;4.03;;;;;;;;;;5039725;28;20043;-68
2023/05/27 12:56:50;;;;;;;7.28;4.40;;;;;;;;;;5041238;28;20480;-68
2023/05/27 12:59:21;;;;;;;12.35;4.03;;;;;;;;;;5041418;28;20044;-68
2023/05/27 13:01:47;;;;;;;7.80;4.18;;;;;;;;;;5038399;28;20037;-68
2023/05/27 13:04:15;;;;;;;9.75;4.22;;;;;;;;;;5039085;28;20052;-65
2023/05/27 13:06:40;;;;;;;7.55;3.88;;;;;;;;;;5034754;28;20057;-67
2023/05/27 13:09:06;;;;;;;6.57;3.78;;;;;;;;;;5020921;28;20106;-65
2023/05/27 13:11:34;;;;;;;7.13;3.70;;;;;;;;;;5020035;28;20168;-66
2023/05/27 13:14:00;;;;;;;10.95;4.75;;;;;;;;;;5019403;28;20045;-65
2023/05/27 13:16:25;;;;;;;7.53;3.60;;;;;;;;;;5020794;28;20041;-70
2023/05/27 13:18:51;;;;;;;8.18;3.95;;;;;;;;;;5003097;28;20041;-66
2023/05/27 13:21:17;;;;;;;6.72;3.50;;;;;;;;;;5017930;28;20076;-65
2023/05/27 13:23:42;;;;;;;7.93;4.20;;;;;;;;;;5019797;28;20045;-64
2023/05/27 13:26:08;;;;;;;9.88;4.05;;;;;;;;;;5019978;28;20030;-64
2023/05/27 13:28:33;;;;;;;8.07;3.50;;;;;;;;;;5020088;28;20457;-65
2023/05/27 13:30:59;;;;;;;6.28;3.45;;;;;;;;;;5020655;28;20127;-61
2023/05/27 13:33:24;;;;;;;6.18;3.50;;;;;;;;;;5020368;28;20017;-60
2023/05/27 13:35:50;;;;;;;6.40;3.40;;;;;;;;;;5011124;28;20761;-62
2023/05/27 13:38:16;;;;;;;8.00;4.10;;;;;;;;;;5007419;28;20064;-62
2023/05/27 13:40:42;;;;;;;7.10;3.80;;;;;;;;;;5017604;28;20041;-62
2023/05/27 13:43:08;;;;;;;6.63;3.78;;;;;;;;;;5018194;28;20446;-62
2023/05/27 13:45:33;;;;;;;6.90;4.25;;;;;;;;;;5016808;28;20461;-62
2023/05/27 13:48:00;;;;;;;7.68;4.47;;;;;;;;;;5019428;28;20037;-61
2023/05/27 13:50:27;;;;;;;8.93;4.40;;;;;;;;;;5019093;28;20132;-61
2023/05/27 13:52:52;;;;;;;6.88;3.85;;;;;;;;;;5019449;28;20041;-61
2023/05/27 13:55:18;;;;;;;12.70;4.45;;;;;;;;;;5020652;28;20114;-63
2023/05/27 13:57:43;;;;;;;6.80;3.38;;;;;;;;;;5019369;28;20540;-63
2023/05/27 14:00:09;;;;;;;11.95;5.22;;;;;;;;;;5019703;28;20101;-62
2023/05/27 14:02:34;;;;;;;12.02;5.82;;;;;;;;;;5001448;28;20026;-61
2023/05/27 14:05:01;;;;;;;7.47;4.55;;;;;;;;;;5018902;28;20738;-62
2023/05/27 14:07:27;;;;;;;9.00;4.55;;;;;;;;;;5031727;28;20048;-62
2023/05/27 14:09:54;;;;;;;7.65;4.53;;;;;;;;;;5040747;28;20040;-62
2023/05/27 14:12:21;;;;;;;9.07;4.32;;;;;;;;;;5039705;28;20064;-62
2023/05/27 14:14:47;;;;;;;10.85;5.10;;;;;;;;;;5039208;28;20075;-62
2023/05/27 14:17:12;;;;;;;11.30;3.92;;;;;;;;;;5040267;28;20032;-63
2023/05/27 14:19:37;;;;;;;9.55;4.55;;;;;;;;;;5040392;28;20041;-62
2023/05/27 14:22:03;;;;;;;7.82;4.72;;;;;;;;;;5039774;28;20048;-63
2023/05/27 14:24:28;;;;;;;6.70;4.40;;;;;;;;;;5040091;28;20029;-63
2023/05/27 14:26:56;;;;;;;8.70;5.18;;;;;;;;;;5039031;28;20099;-63
2023/05/27 14:29:24;;;;;;;9.55;5.75;;;;;;;;;;5038752;28;20025;-63
2023/05/27 14:31:50;;;;;;;7.75;3.67;;;;;;;;;;5039665;28;20931;-63
2023/05/27 14:34:15;;;;;;;7.90;4.15;;;;;;;;;;5039767;28;20039;-63
2023/05/27 14:36:41;;;;;;;6.65;4.85;;;;;;;;;;5038843;28;20048;-63
2023/05/27 14:39:07;;;;;;;10.52;4.70;;;;;;;;;;5038788;28;20037;-63
2023/05/27 14:41:33;;;;;;;13.45;4.55;;;;;;;;;;5039638;28;20448;-63
2023/05/27 14:43:59;;;;;;;8.90;4.13;;;;;;;;;;5036762;28;20036;-66